sensor_id;sensor_type;location;lat;lon;timestamp;P1;durP1;ratioP1;P2;durP2;ratioP2
56752;SDS011;42627;42.646;23.642;2023-08-08T00:00:00;6.78;;;0.93;;
56752;SDS011;42627;42.646;23.642;2023-08-08T00:02:02;1.45;;;0.70;;
56752;SDS011;42627;42.646;23.642;2023-08-08T00:04:03;1.45;;;0.60;;
56752;SDS011;42627;42.646;23.642;2023-08-08T00:06:04;2.40;;;0.70;;
56752;SDS011;42627;42.646;23.642;2023-08-08T00:08:06;1.73;;;0.75;;
56752;SDS011;42627;42.646;23.642;2023-08-08T00:10:07;1.73;;;0.88;;
56752;SDS011;42627;42.646;23.642;2023-08-08T00:12:08;1.52;;;0.98;;
56752;SDS011;42627;42.646;23.642;2023-08-08T00:14:09;3.03;;;0.80;;
56752;SDS011;42627;42.646;23.642;2023-08-08T00:16:10;1.45;;;0.77;;
56752;SDS011;42627;42.646;23.642;2023-08-08T00:18:11;1.13;;;0.60;;
56752;SDS011;42627;42.646;23.642;2023-08-08T00:20:12;2.25;;;0.90;;
56752;SDS011;42627;42.646;23.642;2023-08-08T00:22:13;2.17;;;0.70;;
56752;SDS011;42627;42.646;23.642;2023-08-08T00:24:14;1.25;;;0.70;;
56752;SDS011;42627;42.646;23.642;2023-08-08T00:26:15;1.75;;;0.90;;
56752;SDS011;42627;42.646;23.642;2023-08-08T00:28:16;1.67;;;0.90;;
56752;SDS011;42627;42.646;23.642;2023-08-08T00:30:20;1.73;;;0.70;;
56752;SDS011;42627;42.646;23.642;2023-08-08T00:32:21;2.13;;;0.90;;
56752;SDS011;42627;42.646;23.642;2023-08-08T00:34:22;1.92;;;0.85;;
56752;SDS011;42627;42.646;23.642;2023-08-08T00:36:23;2.35;;;0.95;;
56752;SDS011;42627;42.646;23.642;2023-08-08T00:38:24;1.42;;;0.80;;
56752;SDS011;42627;42.646;23.642;2023-08-08T00:40:24;2.13;;;1.00;;
56752;SDS011;42627;42.646;23.642;2023-08-08T00:42:25;3.55;;;0.70;;
56752;SDS011;42627;42.646;23.642;2023-08-08T00:44:26;1.40;;;0.70;;
56752;SDS011;42627;42.646;23.642;2023-08-08T00:46:26;2.50;;;0.80;;
56752;SDS011;42627;42.646;23.642;2023-08-08T00:48:27;1.42;;;0.70;;
56752;SDS011;42627;42.646;23.642;2023-08-08T00:50:28;4.63;;;1.17;;
56752;SDS011;42627;42.646;23.642;2023-08-08T00:52:29;1.35;;;0.75;;
56752;SDS011;42627;42.646;23.642;2023-08-08T00:54:30;1.83;;;0.90;;
56752;SDS011;42627;42.646;23.642;2023-08-08T00:56:31;2.45;;;1.10;;
56752;SDS011;42627;42.646;23.642;2023-08-08T00:58:32;1.80;;;0.80;;
56752;SDS011;42627;42.646;23.642;2023-08-08T01:00:33;3.78;;;1.17;;
56752;SDS011;42627;42.646;23.642;2023-08-08T01:02:33;1.98;;;1.00;;
56752;SDS011;42627;42.646;23.642;2023-08-08T01:04:34;2.22;;;1.23;;
56752;SDS011;42627;42.646;23.642;2023-08-08T01:08:48;1.95;;;1.00;;
56752;SDS011;42627;42.646;23.642;2023-08-08T01:10:51;2.13;;;0.95;;
56752;SDS011;42627;42.646;23.642;2023-08-08T01:12:56;2.10;;;0.93;;
56752;SDS011;42627;42.646;23.642;2023-08-08T01:15:02;2.05;;;0.93;;
56752;SDS011;42627;42.646;23.642;2023-08-08T01:17:06;1.93;;;1.00;;
56752;SDS011;42627;42.646;23.642;2023-08-08T01:19:07;1.95;;;0.95;;
56752;SDS011;42627;42.646;23.642;2023-08-08T01:21:12;2.83;;;1.30;;
56752;SDS011;42627;42.646;23.642;2023-08-08T01:25:31;1.42;;;0.88;;
56752;SDS011;42627;42.646;23.642;2023-08-08T01:27:33;1.95;;;1.13;;
56752;SDS011;42627;42.646;23.642;2023-08-08T01:29:34;1.73;;;0.80;;
56752;SDS011;42627;42.646;23.642;2023-08-08T01:31:35;1.08;;;0.80;;
56752;SDS011;42627;42.646;23.642;2023-08-08T01:33:35;1.63;;;0.80;;
56752;SDS011;42627;42.646;23.642;2023-08-08T01:35:41;2.25;;;1.00;;
56752;SDS011;42627;42.646;23.642;2023-08-08T01:37:46;2.58;;;0.90;;
56752;SDS011;42627;42.646;23.642;2023-08-08T01:39:48;2.45;;;0.98;;
56752;SDS011;42627;42.646;23.642;2023-08-08T01:41:49;2.28;;;1.00;;
56752;SDS011;42627;42.646;23.642;2023-08-08T01:43:51;1.50;;;0.77;;
56752;SDS011;42627;42.646;23.642;2023-08-08T01:45:52;2.33;;;0.90;;
56752;SDS011;42627;42.646;23.642;2023-08-08T01:47:54;1.08;;;0.63;;
56752;SDS011;42627;42.646;23.642;2023-08-08T01:49:55;1.73;;;0.90;;
56752;SDS011;42627;42.646;23.642;2023-08-08T01:51:56;1.60;;;1.02;;
56752;SDS011;42627;42.646;23.642;2023-08-08T01:53:57;3.55;;;1.00;;
56752;SDS011;42627;42.646;23.642;2023-08-08T01:55:58;2.33;;;1.20;;
56752;SDS011;42627;42.646;23.642;2023-08-08T01:57:59;2.30;;;1.10;;
56752;SDS011;42627;42.646;23.642;2023-08-08T02:00:00;1.58;;;0.80;;
56752;SDS011;42627;42.646;23.642;2023-08-08T02:02:04;2.85;;;1.00;;
56752;SDS011;42627;42.646;23.642;2023-08-08T02:04:05;2.70;;;1.00;;
56752;SDS011;42627;42.646;23.642;2023-08-08T02:06:06;2.90;;;1.15;;
56752;SDS011;42627;42.646;23.642;2023-08-08T02:08:07;2.67;;;1.30;;
56752;SDS011;42627;42.646;23.642;2023-08-08T02:10:09;2.70;;;1.45;;
56752;SDS011;42627;42.646;23.642;2023-08-08T02:12:10;3.53;;;1.58;;
56752;SDS011;42627;42.646;23.642;2023-08-08T02:14:11;2.78;;;1.23;;
56752;SDS011;42627;42.646;23.642;2023-08-08T02:16:12;4.28;;;1.23;;
56752;SDS011;42627;42.646;23.642;2023-08-08T02:18:13;4.65;;;1.42;;
56752;SDS011;42627;42.646;23.642;2023-08-08T02:20:15;2.72;;;1.42;;
56752;SDS011;42627;42.646;23.642;2023-08-08T02:22:16;2.72;;;1.50;;
56752;SDS011;42627;42.646;23.642;2023-08-08T02:24:17;2.05;;;1.00;;
56752;SDS011;42627;42.646;23.642;2023-08-08T02:26:18;1.77;;;1.10;;
56752;SDS011;42627;42.646;23.642;2023-08-08T02:28:18;4.85;;;1.10;;
56752;SDS011;42627;42.646;23.642;2023-08-08T02:30:19;2.58;;;1.40;;
56752;SDS011;42627;42.646;23.642;2023-08-08T02:32:20;2.22;;;1.30;;
56752;SDS011;42627;42.646;23.642;2023-08-08T02:34:21;3.83;;;1.40;;
56752;SDS011;42627;42.646;23.642;2023-08-08T02:36:22;2.67;;;1.52;;
56752;SDS011;42627;42.646;23.642;2023-08-08T02:38:23;2.22;;;1.17;;
56752;SDS011;42627;42.646;23.642;2023-08-08T02:40:24;3.10;;;1.30;;
56752;SDS011;42627;42.646;23.642;2023-08-08T02:42:26;2.47;;;1.20;;
56752;SDS011;42627;42.646;23.642;2023-08-08T02:44:27;1.73;;;0.90;;
56752;SDS011;42627;42.646;23.642;2023-08-08T02:46:28;1.52;;;0.90;;
56752;SDS011;42627;42.646;23.642;2023-08-08T02:48:29;1.58;;;1.00;;
56752;SDS011;42627;42.646;23.642;2023-08-08T02:50:31;1.80;;;1.20;;
56752;SDS011;42627;42.646;23.642;2023-08-08T02:52:32;2.17;;;1.30;;
56752;SDS011;42627;42.646;23.642;2023-08-08T02:54:33;4.40;;;1.08;;
56752;SDS011;42627;42.646;23.642;2023-08-08T02:56:36;2.38;;;1.33;;
56752;SDS011;42627;42.646;23.642;2023-08-08T02:58:37;1.75;;;1.00;;
56752;SDS011;42627;42.646;23.642;2023-08-08T03:00:38;2.05;;;1.10;;
56752;SDS011;42627;42.646;23.642;2023-08-08T03:02:39;1.67;;;1.08;;
56752;SDS011;42627;42.646;23.642;2023-08-08T03:04:40;4.00;;;1.75;;
56752;SDS011;42627;42.646;23.642;2023-08-08T03:06:40;2.63;;;1.33;;
56752;SDS011;42627;42.646;23.642;2023-08-08T03:08:44;1.92;;;1.00;;
56752;SDS011;42627;42.646;23.642;2023-08-08T03:10:44;2.10;;;1.13;;
56752;SDS011;42627;42.646;23.642;2023-08-08T03:12:45;2.03;;;1.30;;
56752;SDS011;42627;42.646;23.642;2023-08-08T03:14:48;2.20;;;1.20;;
56752;SDS011;42627;42.646;23.642;2023-08-08T03:16:49;2.58;;;1.25;;
56752;SDS011;42627;42.646;23.642;2023-08-08T03:18:49;3.30;;;1.40;;
56752;SDS011;42627;42.646;23.642;2023-08-08T03:20:50;2.40;;;1.40;;
56752;SDS011;42627;42.646;23.642;2023-08-08T03:22:51;2.50;;;1.23;;
56752;SDS011;42627;42.646;23.642;2023-08-08T03:24:51;2.45;;;1.40;;
56752;SDS011;42627;42.646;23.642;2023-08-08T03:26:52;1.95;;;1.20;;
56752;SDS011;42627;42.646;23.642;2023-08-08T03:28:52;3.42;;;1.83;;
56752;SDS011;42627;42.646;23.642;2023-08-08T03:30:54;1.95;;;1.23;;
56752;SDS011;42627;42.646;23.642;2023-08-08T03:32:55;2.40;;;1.45;;
56752;SDS011;42627;42.646;23.642;2023-08-08T03:34:55;2.75;;;1.55;;
56752;SDS011;42627;42.646;23.642;2023-08-08T03:36:56;3.65;;;1.60;;
56752;SDS011;42627;42.646;23.642;2023-08-08T03:38:56;2.80;;;1.50;;
56752;SDS011;42627;42.646;23.642;2023-08-08T03:40:57;3.28;;;1.55;;
56752;SDS011;42627;42.646;23.642;2023-08-08T03:42:58;2.75;;;1.60;;
56752;SDS011;42627;42.646;23.642;2023-08-08T03:44:59;3.95;;;1.75;;
56752;SDS011;42627;42.646;23.642;2023-08-08T03:47:00;4.03;;;1.52;;
56752;SDS011;42627;42.646;23.642;2023-08-08T03:53:22;3.58;;;1.98;;
56752;SDS011;42627;42.646;23.642;2023-08-08T03:55:23;3.15;;;1.70;;
56752;SDS011;42627;42.646;23.642;2023-08-08T03:57:23;4.90;;;2.10;;
56752;SDS011;42627;42.646;23.642;2023-08-08T03:59:24;4.10;;;1.98;;
56752;SDS011;42627;42.646;23.642;2023-08-08T04:01:25;4.13;;;2.00;;
56752;SDS011;42627;42.646;23.642;2023-08-08T04:03:41;3.83;;;1.90;;
56752;SDS011;42627;42.646;23.642;2023-08-08T04:05:46;3.28;;;2.03;;
56752;SDS011;42627;42.646;23.642;2023-08-08T04:07:47;2.72;;;1.88;;
56752;SDS011;42627;42.646;23.642;2023-08-08T04:09:48;3.15;;;1.60;;
56752;SDS011;42627;42.646;23.642;2023-08-08T04:11:49;3.08;;;1.80;;
56752;SDS011;42627;42.646;23.642;2023-08-08T04:13:53;3.03;;;2.05;;
56752;SDS011;42627;42.646;23.642;2023-08-08T04:15:54;3.60;;;2.25;;
56752;SDS011;42627;42.646;23.642;2023-08-08T04:17:55;3.28;;;2.13;;
56752;SDS011;42627;42.646;23.642;2023-08-08T04:19:59;4.53;;;2.28;;
56752;SDS011;42627;42.646;23.642;2023-08-08T04:22:00;3.92;;;2.40;;
56752;SDS011;42627;42.646;23.642;2023-08-08T04:24:01;4.03;;;2.25;;
56752;SDS011;42627;42.646;23.642;2023-08-08T04:26:02;4.90;;;2.33;;
56752;SDS011;42627;42.646;23.642;2023-08-08T04:28:09;6.90;;;2.30;;
56752;SDS011;42627;42.646;23.642;2023-08-08T04:30:10;3.83;;;2.05;;
56752;SDS011;42627;42.646;23.642;2023-08-08T04:32:11;4.82;;;2.83;;
56752;SDS011;42627;42.646;23.642;2023-08-08T04:34:18;4.30;;;2.28;;
56752;SDS011;42627;42.646;23.642;2023-08-08T04:36:19;5.15;;;2.40;;
56752;SDS011;42627;42.646;23.642;2023-08-08T04:38:20;4.35;;;2.45;;
56752;SDS011;42627;42.646;23.642;2023-08-08T04:40:21;5.30;;;2.80;;
56752;SDS011;42627;42.646;23.642;2023-08-08T04:42:22;6.50;;;2.78;;
56752;SDS011;42627;42.646;23.642;2023-08-08T04:44:23;5.93;;;3.33;;
56752;SDS011;42627;42.646;23.642;2023-08-08T04:46:24;5.13;;;3.00;;
56752;SDS011;42627;42.646;23.642;2023-08-08T04:48:25;5.63;;;3.10;;
56752;SDS011;42627;42.646;23.642;2023-08-08T04:50:26;5.72;;;2.83;;
56752;SDS011;42627;42.646;23.642;2023-08-08T04:52:28;5.45;;;2.90;;
56752;SDS011;42627;42.646;23.642;2023-08-08T04:54:29;5.50;;;2.92;;
56752;SDS011;42627;42.646;23.642;2023-08-08T04:56:30;5.10;;;2.80;;
56752;SDS011;42627;42.646;23.642;2023-08-08T04:58:31;4.55;;;3.15;;
56752;SDS011;42627;42.646;23.642;2023-08-08T05:00:32;6.30;;;3.08;;
56752;SDS011;42627;42.646;23.642;2023-08-08T05:02:33;5.32;;;3.38;;
56752;SDS011;42627;42.646;23.642;2023-08-08T05:04:35;4.75;;;3.25;;
56752;SDS011;42627;42.646;23.642;2023-08-08T05:06:36;7.43;;;3.63;;
56752;SDS011;42627;42.646;23.642;2023-08-08T05:08:37;6.22;;;3.15;;
56752;SDS011;42627;42.646;23.642;2023-08-08T05:10:37;7.28;;;3.63;;
56752;SDS011;42627;42.646;23.642;2023-08-08T05:12:38;5.25;;;3.75;;
56752;SDS011;42627;42.646;23.642;2023-08-08T05:14:39;5.57;;;3.70;;
56752;SDS011;42627;42.646;23.642;2023-08-08T05:16:40;8.23;;;4.32;;
56752;SDS011;42627;42.646;23.642;2023-08-08T05:18:41;5.45;;;3.30;;
56752;SDS011;42627;42.646;23.642;2023-08-08T05:20:44;5.03;;;3.35;;
56752;SDS011;42627;42.646;23.642;2023-08-08T05:22:44;6.30;;;3.55;;
56752;SDS011;42627;42.646;23.642;2023-08-08T05:24:45;6.03;;;3.90;;
56752;SDS011;42627;42.646;23.642;2023-08-08T05:26:46;8.13;;;4.18;;
56752;SDS011;42627;42.646;23.642;2023-08-08T05:33:08;6.45;;;3.65;;
56752;SDS011;42627;42.646;23.642;2023-08-08T05:35:09;5.30;;;3.65;;
56752;SDS011;42627;42.646;23.642;2023-08-08T05:37:10;5.40;;;3.53;;
56752;SDS011;42627;42.646;23.642;2023-08-08T05:39:11;7.13;;;4.38;;
56752;SDS011;42627;42.646;23.642;2023-08-08T05:41:12;5.38;;;3.67;;
56752;SDS011;42627;42.646;23.642;2023-08-08T05:43:12;6.47;;;4.18;;
56752;SDS011;42627;42.646;23.642;2023-08-08T05:45:18;6.68;;;3.90;;
56752;SDS011;42627;42.646;23.642;2023-08-08T05:47:19;6.82;;;3.88;;
56752;SDS011;42627;42.646;23.642;2023-08-08T05:49:20;5.43;;;3.63;;
56752;SDS011;42627;42.646;23.642;2023-08-08T05:51:21;7.60;;;4.28;;
56752;SDS011;42627;42.646;23.642;2023-08-08T05:53:22;5.65;;;3.72;;
56752;SDS011;42627;42.646;23.642;2023-08-08T05:55:22;5.45;;;2.95;;
56752;SDS011;42627;42.646;23.642;2023-08-08T05:57:23;6.38;;;3.72;;
56752;SDS011;42627;42.646;23.642;2023-08-08T05:59:24;4.70;;;3.00;;
56752;SDS011;42627;42.646;23.642;2023-08-08T06:01:25;5.15;;;3.25;;
56752;SDS011;42627;42.646;23.642;2023-08-08T06:03:26;5.10;;;3.05;;
56752;SDS011;42627;42.646;23.642;2023-08-08T06:05:27;6.43;;;3.10;;
56752;SDS011;42627;42.646;23.642;2023-08-08T06:07:28;4.57;;;3.03;;
56752;SDS011;42627;42.646;23.642;2023-08-08T06:09:29;4.13;;;2.80;;
56752;SDS011;42627;42.646;23.642;2023-08-08T06:11:31;4.57;;;2.90;;
56752;SDS011;42627;42.646;23.642;2023-08-08T06:13:32;4.88;;;3.10;;
56752;SDS011;42627;42.646;23.642;2023-08-08T06:15:32;6.53;;;4.05;;
56752;SDS011;42627;42.646;23.642;2023-08-08T06:17:33;5.60;;;3.58;;
56752;SDS011;42627;42.646;23.642;2023-08-08T06:19:34;4.65;;;2.97;;
56752;SDS011;42627;42.646;23.642;2023-08-08T06:21:35;5.10;;;3.10;;
56752;SDS011;42627;42.646;23.642;2023-08-08T06:23:36;7.20;;;3.30;;
56752;SDS011;42627;42.646;23.642;2023-08-08T06:25:37;5.50;;;3.20;;
56752;SDS011;42627;42.646;23.642;2023-08-08T06:27:38;4.25;;;3.00;;
56752;SDS011;42627;42.646;23.642;2023-08-08T06:29:39;4.85;;;2.97;;
56752;SDS011;42627;42.646;23.642;2023-08-08T06:31:40;5.07;;;2.97;;
56752;SDS011;42627;42.646;23.642;2023-08-08T06:33:41;3.95;;;2.30;;
56752;SDS011;42627;42.646;23.642;2023-08-08T06:35:43;3.88;;;2.33;;
56752;SDS011;42627;42.646;23.642;2023-08-08T06:39:55;4.70;;;2.85;;
56752;SDS011;42627;42.646;23.642;2023-08-08T06:41:56;3.67;;;2.45;;
56752;SDS011;42627;42.646;23.642;2023-08-08T06:43:57;2.78;;;1.85;;
56752;SDS011;42627;42.646;23.642;2023-08-08T06:46:18;2.70;;;1.63;;
56752;SDS011;42627;42.646;23.642;2023-08-08T06:48:20;3.53;;;1.73;;
56752;SDS011;42627;42.646;23.642;2023-08-08T06:50:21;2.92;;;1.60;;
56752;SDS011;42627;42.646;23.642;2023-08-08T06:52:24;2.65;;;1.63;;
56752;SDS011;42627;42.646;23.642;2023-08-08T06:54:25;2.70;;;1.60;;
56752;SDS011;42627;42.646;23.642;2023-08-08T06:56:28;2.30;;;1.40;;
56752;SDS011;42627;42.646;23.642;2023-08-08T06:58:29;2.05;;;1.30;;
56752;SDS011;42627;42.646;23.642;2023-08-08T07:00:36;1.85;;;1.38;;
56752;SDS011;42627;42.646;23.642;2023-08-08T07:05:06;2.50;;;1.60;;
56752;SDS011;42627;42.646;23.642;2023-08-08T07:07:07;2.10;;;1.05;;
56752;SDS011;42627;42.646;23.642;2023-08-08T07:09:09;2.92;;;1.40;;
56752;SDS011;42627;42.646;23.642;2023-08-08T07:13:25;2.63;;;1.70;;
56752;SDS011;42627;42.646;23.642;2023-08-08T07:15:29;3.90;;;1.70;;
56752;SDS011;42627;42.646;23.642;2023-08-08T07:17:31;2.85;;;1.60;;
56752;SDS011;42627;42.646;23.642;2023-08-08T07:19:39;3.60;;;1.92;;
56752;SDS011;42627;42.646;23.642;2023-08-08T07:23:51;7.38;;;1.92;;
56752;SDS011;42627;42.646;23.642;2023-08-08T07:30:14;2.92;;;1.90;;
56752;SDS011;42627;42.646;23.642;2023-08-08T07:32:16;3.90;;;2.25;;
56752;SDS011;42627;42.646;23.642;2023-08-08T07:34:17;3.50;;;2.42;;
56752;SDS011;42627;42.646;23.642;2023-08-08T07:36:18;3.08;;;2.08;;
56752;SDS011;42627;42.646;23.642;2023-08-08T07:38:19;2.88;;;1.50;;
56752;SDS011;42627;42.646;23.642;2023-08-08T07:40:20;3.25;;;1.77;;
56752;SDS011;42627;42.646;23.642;2023-08-08T07:42:21;2.72;;;1.63;;
56752;SDS011;42627;42.646;23.642;2023-08-08T07:44:22;2.38;;;1.42;;
56752;SDS011;42627;42.646;23.642;2023-08-08T07:46:24;2.33;;;1.63;;
56752;SDS011;42627;42.646;23.642;2023-08-08T07:48:25;2.83;;;1.70;;
56752;SDS011;42627;42.646;23.642;2023-08-08T07:50:26;3.10;;;1.90;;
56752;SDS011;42627;42.646;23.642;2023-08-08T07:52:27;3.88;;;2.30;;
56752;SDS011;42627;42.646;23.642;2023-08-08T07:54:28;3.72;;;2.38;;
56752;SDS011;42627;42.646;23.642;2023-08-08T07:56:31;3.45;;;2.05;;
56752;SDS011;42627;42.646;23.642;2023-08-08T07:58:32;4.43;;;2.45;;
56752;SDS011;42627;42.646;23.642;2023-08-08T08:00:33;2.95;;;1.77;;
56752;SDS011;42627;42.646;23.642;2023-08-08T08:02:34;2.75;;;1.90;;
56752;SDS011;42627;42.646;23.642;2023-08-08T08:04:36;3.08;;;2.20;;
56752;SDS011;42627;42.646;23.642;2023-08-08T08:08:51;3.03;;;1.80;;
56752;SDS011;42627;42.646;23.642;2023-08-08T08:13:06;3.08;;;1.90;;
56752;SDS011;42627;42.646;23.642;2023-08-08T08:17:23;3.47;;;2.08;;
56752;SDS011;42627;42.646;23.642;2023-08-08T08:19:24;3.90;;;1.80;;
56752;SDS011;42627;42.646;23.642;2023-08-08T08:21:26;2.58;;;1.90;;
56752;SDS011;42627;42.646;23.642;2023-08-08T08:23:33;3.05;;;1.60;;
56752;SDS011;42627;42.646;23.642;2023-08-08T08:25:34;2.80;;;1.80;;
56752;SDS011;42627;42.646;23.642;2023-08-08T08:27:36;3.83;;;1.73;;
56752;SDS011;42627;42.646;23.642;2023-08-08T08:29:37;3.08;;;1.63;;
56752;SDS011;42627;42.646;23.642;2023-08-08T08:31:38;4.28;;;2.00;;
56752;SDS011;42627;42.646;23.642;2023-08-08T08:33:39;3.42;;;1.80;;
56752;SDS011;42627;42.646;23.642;2023-08-08T08:35:40;2.45;;;1.60;;
56752;SDS011;42627;42.646;23.642;2023-08-08T08:37:41;1.98;;;1.40;;
56752;SDS011;42627;42.646;23.642;2023-08-08T08:39:44;2.30;;;1.40;;
56752;SDS011;42627;42.646;23.642;2023-08-08T08:43:56;2.83;;;1.70;;
56752;SDS011;42627;42.646;23.642;2023-08-08T08:45:58;2.65;;;1.48;;
56752;SDS011;42627;42.646;23.642;2023-08-08T08:48:01;2.28;;;1.33;;
56752;SDS011;42627;42.646;23.642;2023-08-08T08:50:02;2.70;;;1.55;;
56752;SDS011;42627;42.646;23.642;2023-08-08T08:52:07;2.45;;;1.40;;
56752;SDS011;42627;42.646;23.642;2023-08-08T08:54:08;2.35;;;1.33;;
56752;SDS011;42627;42.646;23.642;2023-08-08T08:56:10;2.90;;;1.60;;
56752;SDS011;42627;42.646;23.642;2023-08-08T08:58:13;2.70;;;1.35;;
56752;SDS011;42627;42.646;23.642;2023-08-08T09:00:16;2.92;;;1.20;;
56752;SDS011;42627;42.646;23.642;2023-08-08T09:02:18;2.22;;;1.20;;
56752;SDS011;42627;42.646;23.642;2023-08-08T09:04:19;2.95;;;1.52;;
56752;SDS011;42627;42.646;23.642;2023-08-08T09:06:22;1.73;;;1.10;;
56752;SDS011;42627;42.646;23.642;2023-08-08T09:08:23;3.45;;;1.33;;
56752;SDS011;42627;42.646;23.642;2023-08-08T09:10:25;1.80;;;1.20;;
56752;SDS011;42627;42.646;23.642;2023-08-08T09:12:27;3.25;;;1.10;;
56752;SDS011;42627;42.646;23.642;2023-08-08T09:16:38;1.70;;;0.98;;
56752;SDS011;42627;42.646;23.642;2023-08-08T09:18:40;1.98;;;1.15;;
56752;SDS011;42627;42.646;23.642;2023-08-08T09:22:56;2.17;;;1.13;;
56752;SDS011;42627;42.646;23.642;2023-08-08T09:35:53;2.42;;;1.27;;
56752;SDS011;42627;42.646;23.642;2023-08-08T09:40:06;1.83;;;1.00;;
56752;SDS011;42627;42.646;23.642;2023-08-08T09:42:08;1.48;;;0.85;;
56752;SDS011;42627;42.646;23.642;2023-08-08T09:44:11;1.80;;;1.15;;
56752;SDS011;42627;42.646;23.642;2023-08-08T09:46:12;2.25;;;1.33;;
56752;SDS011;42627;42.646;23.642;2023-08-08T09:48:18;2.30;;;1.20;;
56752;SDS011;42627;42.646;23.642;2023-08-08T09:50:19;2.55;;;1.20;;
56752;SDS011;42627;42.646;23.642;2023-08-08T09:52:21;3.50;;;1.30;;
56752;SDS011;42627;42.646;23.642;2023-08-08T09:54:22;3.17;;;1.63;;
56752;SDS011;42627;42.646;23.642;2023-08-08T09:56:24;1.80;;;1.10;;
56752;SDS011;42627;42.646;23.642;2023-08-08T09:58:25;3.53;;;1.40;;
56752;SDS011;42627;42.646;23.642;2023-08-08T10:00:26;1.75;;;1.00;;
56752;SDS011;42627;42.646;23.642;2023-08-08T10:02:28;1.48;;;1.10;;
56752;SDS011;42627;42.646;23.642;2023-08-08T10:04:29;4.53;;;1.33;;
56752;SDS011;42627;42.646;23.642;2023-08-08T10:06:31;2.47;;;1.52;;
56752;SDS011;42627;42.646;23.642;2023-08-08T10:08:32;2.17;;;1.25;;
56752;SDS011;42627;42.646;23.642;2023-08-08T10:10:33;2.08;;;1.27;;
56752;SDS011;42627;42.646;23.642;2023-08-08T10:12:38;1.60;;;1.00;;
56752;SDS011;42627;42.646;23.642;2023-08-08T10:14:41;1.70;;;1.10;;
56752;SDS011;42627;42.646;23.642;2023-08-08T10:16:42;2.50;;;1.42;;
56752;SDS011;42627;42.646;23.642;2023-08-08T10:18:45;3.42;;;1.48;;
56752;SDS011;42627;42.646;23.642;2023-08-08T10:20:49;2.13;;;1.30;;
56752;SDS011;42627;42.646;23.642;2023-08-08T10:22:51;1.85;;;1.20;;
56752;SDS011;42627;42.646;23.642;2023-08-08T10:24:54;1.88;;;1.30;;
56752;SDS011;42627;42.646;23.642;2023-08-08T10:26:56;1.60;;;1.02;;
56752;SDS011;42627;42.646;23.642;2023-08-08T10:29:02;2.60;;;1.70;;
56752;SDS011;42627;42.646;23.642;2023-08-08T10:31:03;2.83;;;1.38;;
56752;SDS011;42627;42.646;23.642;2023-08-08T10:33:15;3.78;;;1.40;;
56752;SDS011;42627;42.646;23.642;2023-08-08T10:35:16;3.47;;;1.58;;
56752;SDS011;42627;42.646;23.642;2023-08-08T10:37:17;4.30;;;1.83;;
56752;SDS011;42627;42.646;23.642;2023-08-08T10:39:19;1.88;;;1.40;;
56752;SDS011;42627;42.646;23.642;2023-08-08T10:41:21;2.05;;;1.17;;
56752;SDS011;42627;42.646;23.642;2023-08-08T10:43:26;2.13;;;1.40;;
56752;SDS011;42627;42.646;23.642;2023-08-08T10:45:29;1.88;;;1.35;;
56752;SDS011;42627;42.646;23.642;2023-08-08T10:47:33;2.90;;;1.30;;
56752;SDS011;42627;42.646;23.642;2023-08-08T10:49:35;3.22;;;1.55;;
56752;SDS011;42627;42.646;23.642;2023-08-08T10:51:39;4.65;;;1.65;;
56752;SDS011;42627;42.646;23.642;2023-08-08T10:53:43;2.05;;;1.33;;
56752;SDS011;42627;42.646;23.642;2023-08-08T10:55:44;4.50;;;1.40;;
56752;SDS011;42627;42.646;23.642;2023-08-08T10:57:55;2.05;;;1.33;;
56752;SDS011;42627;42.646;23.642;2023-08-08T11:00:15;2.10;;;1.20;;
56752;SDS011;42627;42.646;23.642;2023-08-08T11:02:17;2.58;;;1.52;;
56752;SDS011;42627;42.646;23.642;2023-08-08T11:04:20;3.30;;;1.30;;
56752;SDS011;42627;42.646;23.642;2023-08-08T11:06:31;4.28;;;1.75;;
56752;SDS011;42627;42.646;23.642;2023-08-08T11:08:39;2.45;;;1.33;;
56752;SDS011;42627;42.646;23.642;2023-08-08T11:19:23;2.53;;;1.63;;
56752;SDS011;42627;42.646;23.642;2023-08-08T11:21:34;2.90;;;1.58;;
56752;SDS011;42627;42.646;23.642;2023-08-08T11:28:04;2.85;;;1.80;;
56752;SDS011;42627;42.646;23.642;2023-08-08T11:47:27;1.88;;;1.15;;
56752;SDS011;42627;42.646;23.642;2023-08-08T11:49:37;1.98;;;1.27;;
56752;SDS011;42627;42.646;23.642;2023-08-08T12:02:54;2.40;;;1.38;;
56752;SDS011;42627;42.646;23.642;2023-08-08T12:09:28;2.30;;;1.35;;
56752;SDS011;42627;42.646;23.642;2023-08-08T12:26:45;2.42;;;1.38;;
56752;SDS011;42627;42.646;23.642;2023-08-08T12:28:46;2.45;;;1.20;;
56752;SDS011;42627;42.646;23.642;2023-08-08T12:30:47;2.03;;;1.23;;
56752;SDS011;42627;42.646;23.642;2023-08-08T12:32:50;1.73;;;1.10;;
56752;SDS011;42627;42.646;23.642;2023-08-08T12:35:19;2.13;;;1.13;;
56752;SDS011;42627;42.646;23.642;2023-08-08T12:45:58;1.92;;;1.20;;
56752;SDS011;42627;42.646;23.642;2023-08-08T12:50:53;2.35;;;1.20;;
56752;SDS011;42627;42.646;23.642;2023-08-08T13:14:35;1.10;;;0.95;;
56752;SDS011;42627;42.646;23.642;2023-08-08T13:16:39;1.30;;;0.80;;
56752;SDS011;42627;42.646;23.642;2023-08-08T13:21:33;2.72;;;1.10;;
56752;SDS011;42627;42.646;23.642;2023-08-08T13:23:47;2.05;;;1.10;;
56752;SDS011;42627;42.646;23.642;2023-08-08T13:25:48;1.48;;;0.90;;
56752;SDS011;42627;42.646;23.642;2023-08-08T13:27:49;1.92;;;1.02;;
56752;SDS011;42627;42.646;23.642;2023-08-08T13:29:51;2.88;;;0.80;;
56752;SDS011;42627;42.646;23.642;2023-08-08T13:31:52;2.85;;;0.90;;
56752;SDS011;42627;42.646;23.642;2023-08-08T13:33:53;2.72;;;0.98;;
56752;SDS011;42627;42.646;23.642;2023-08-08T13:35:54;1.75;;;0.90;;
56752;SDS011;42627;42.646;23.642;2023-08-08T13:37:55;2.05;;;1.10;;
56752;SDS011;42627;42.646;23.642;2023-08-08T13:39:56;1.55;;;0.88;;
56752;SDS011;42627;42.646;23.642;2023-08-08T13:41:57;1.08;;;0.75;;
56752;SDS011;42627;42.646;23.642;2023-08-08T13:43:58;1.73;;;0.80;;
56752;SDS011;42627;42.646;23.642;2023-08-08T13:46:19;1.27;;;0.80;;
56752;SDS011;42627;42.646;23.642;2023-08-08T13:48:23;1.63;;;1.08;;
56752;SDS011;42627;42.646;23.642;2023-08-08T14:21:00;1.80;;;0.88;;
56752;SDS011;42627;42.646;23.642;2023-08-08T14:23:02;1.27;;;0.80;;
56752;SDS011;42627;42.646;23.642;2023-08-08T14:25:09;1.70;;;1.10;;
56752;SDS011;42627;42.646;23.642;2023-08-08T14:29:21;2.15;;;0.93;;
56752;SDS011;42627;42.646;23.642;2023-08-08T14:40:15;1.27;;;0.85;;
56752;SDS011;42627;42.646;23.642;2023-08-08T15:15:04;1.15;;;0.70;;
56752;SDS011;42627;42.646;23.642;2023-08-08T15:21:27;1.60;;;0.80;;
56752;SDS011;42627;42.646;23.642;2023-08-08T15:27:50;1.10;;;0.73;;
56752;SDS011;42627;42.646;23.642;2023-08-08T15:32:02;1.35;;;0.95;;
56752;SDS011;42627;42.646;23.642;2023-08-08T15:34:09;1.05;;;0.70;;
56752;SDS011;42627;42.646;23.642;2023-08-08T15:38:21;2.55;;;1.10;;
56752;SDS011;42627;42.646;23.642;2023-08-08T15:42:42;1.48;;;0.90;;
56752;SDS011;42627;42.646;23.642;2023-08-08T15:47:04;1.55;;;0.95;;
56752;SDS011;42627;42.646;23.642;2023-08-08T15:49:05;1.83;;;0.90;;
56752;SDS011;42627;42.646;23.642;2023-08-08T15:51:12;2.25;;;1.00;;
56752;SDS011;42627;42.646;23.642;2023-08-08T15:53:13;2.03;;;0.93;;
56752;SDS011;42627;42.646;23.642;2023-08-08T16:41:23;1.35;;;0.80;;
56752;SDS011;42627;42.646;23.642;2023-08-08T16:43:52;1.67;;;1.00;;
56752;SDS011;42627;42.646;23.642;2023-08-08T16:48:58;1.10;;;0.90;;
56752;SDS011;42627;42.646;23.642;2023-08-08T16:54:21;1.83;;;0.80;;
56752;SDS011;42627;42.646;23.642;2023-08-08T16:56:59;1.58;;;1.17;;
56752;SDS011;42627;42.646;23.642;2023-08-08T16:59:20;1.20;;;0.80;;